Time;durP1;ratioP1;P1;durP2;ratioP2;P2;SDS_P1;SDS_P2;PMS_P1;PMS_P2;Temp;Humidity;BMP_temperature;BMP_pressure;BME280_temperature;BME280_humidity;BME280_pressure;Samples;Min_cycle;Max_cycle;Signal;HPM_P1;HPM_P2
2021/07/03 10:19:19;;;;;;;8.93;4.28;;;;;;;26.45;39.05;98947.78;5130538;27;20665;-79
2021/07/03 10:21:46;;;;;;;6.60;4.35;;;;;;;26.60;38.35;98924.50;5090441;28;20052;-79
2021/07/03 10:24:18;;;;;;;5.05;4.13;;;;;;;26.90;41.88;98938.38;5090219;28;20509;-81
2021/07/03 10:26:45;;;;;;;6.05;3.78;;;;;;;27.12;39.94;98918.28;5116761;28;20485;-81
2021/07/03 10:29:17;;;;;;;6.45;3.92;;;;;;;26.88;39.05;98935.06;5108745;28;20054;-81
2021/07/03 10:31:45;;;;;;;4.55;3.63;;;;;;;26.78;37.14;98933.22;5120923;27;20043;-79
2021/07/03 10:34:12;;;;;;;4.45;3.75;;;;;;;26.59;37.16;98933.97;5116862;28;20139;-80
2021/07/03 10:36:41;;;;;;;3.90;3.50;;;;;;;26.55;36.91;98934.88;5116764;28;20555;-80
2021/07/03 10:39:08;;;;;;;6.10;3.67;;;;;;;26.90;36.15;98930.00;5129353;27;20448;-79
2021/07/03 10:41:36;;;;;;;5.97;3.97;;;;;;;26.93;38.86;98907.91;5124504;27;20051;-79
2021/07/03 10:44:07;;;;;;;4.75;4.00;;;;;;;26.84;37.58;98909.72;5108338;28;20521;-79
2021/07/03 10:46:36;;;;;;;5.10;3.85;;;;;;;26.93;38.63;98927.44;5111286;28;20048;-79
2021/07/03 10:49:05;;;;;;;6.28;4.05;;;;;;;26.66;37.65;98930.81;5110816;27;20044;-80
2021/07/03 10:51:35;;;;;;;5.95;4.28;;;;;;;26.04;37.95;98925.06;5106673;28;20108;-79
2021/07/03 10:54:12;;;;;;;5.75;3.72;;;;;;;26.59;37.89;98920.03;5115213;27;20097;-79
2021/07/03 10:56:47;;;;;;;5.72;3.75;;;;;;;26.97;39.56;98925.72;5108716;28;20044;-79
2021/07/03 10:59:16;;;;;;;4.55;3.53;;;;;;;27.24;40.17;98926.22;5109402;27;20052;-80
2021/07/03 11:01:43;;;;;;;5.50;3.72;;;;;;;27.15;36.47;98906.50;5108792;28;20463;-80
2021/07/03 11:04:16;;;;;;;4.45;3.78;;;;;;;27.19;36.27;98894.44;5108490;28;20040;-80
2021/07/03 11:06:44;;;;;;;5.22;3.65;;;;;;;27.13;35.44;98903.19;5114230;28;20486;-80
2021/07/03 11:09:29;;;;;;;6.75;3.78;;;;;;;27.26;34.90;98899.63;5108394;28;20044;-80
2021/07/03 11:11:57;;;;;;;4.80;3.50;;;;;;;27.31;38.04;98891.19;5129211;27;20048;-80
2021/07/03 11:14:26;;;;;;;6.90;3.88;;;;;;;27.39;35.60;98892.50;5128348;27;20516;-80
2021/07/03 11:16:54;;;;;;;5.82;3.45;;;;;;;27.39;33.08;98900.88;5111792;28;20127;-80
2021/07/03 11:19:23;;;;;;;3.95;3.38;;;;;;;27.54;34.72;98894.22;5108006;28;20135;-79
2021/07/03 11:21:50;;;;;;;3.87;3.10;;;;;;;27.61;35.60;98899.41;5122945;27;20082;-80
2021/07/03 11:24:17;;;;;;;3.22;2.80;;;;;;;27.86;36.18;98898.16;5087364;28;20052;-79
2021/07/03 11:26:45;;;;;;;4.93;3.85;;;;;;;27.96;34.04;98886.84;5113260;27;20052;-79
2021/07/03 11:29:12;;;;;;;3.92;3.40;;;;;;;28.08;37.12;98883.56;5119968;27;20064;-80
2021/07/03 11:31:38;;;;;;;3.95;3.25;;;;;;;28.09;34.47;98882.41;5105503;28;20089;-81
2021/07/03 11:34:05;;;;;;;6.50;3.45;;;;;;;27.52;35.58;98879.72;5114888;28;20120;-81
2021/07/03 11:36:32;;;;;;;4.95;3.58;;;;;;;27.41;34.63;98881.03;5107523;28;20040;-80
2021/07/03 11:39:00;;;;;;;3.50;3.20;;;;;;;27.61;35.09;98877.06;5085132;28;20502;-80
2021/07/03 11:41:29;;;;;;;6.88;3.22;;;;;;;27.68;38.62;98860.78;5077378;28;20044;-80
2021/07/03 11:44:04;;;;;;;6.18;3.35;;;;;;;27.99;37.26;98882.63;5114424;28;20414;-80
2021/07/03 11:46:32;;;;;;;5.60;3.33;;;;;;;27.76;34.03;98876.81;5114334;28;20047;-80
2021/07/03 11:48:58;;;;;;;7.90;3.53;;;;;;;27.73;35.62;98880.22;5099832;27;20450;-80
2021/07/03 11:51:25;;;;;;;6.38;3.25;;;;;;;27.78;35.65;98880.16;5094121;28;20048;-80
2021/07/03 11:53:53;;;;;;;3.92;3.47;;;;;;;27.94;33.80;98863.09;5096879;28;20056;-80
2021/07/03 11:56:21;;;;;;;3.92;3.08;;;;;;;28.34;34.05;98852.31;5073897;28;20476;-80
2021/07/03 11:58:49;;;;;;;7.05;2.40;;;;;;;28.41;36.08;98850.75;5079237;28;20048;-80
2021/07/03 12:01:19;;;;;;;4.90;2.85;;;;;;;28.20;34.76;98857.91;5111543;28;20047;-80
2021/07/03 12:03:47;;;;;;;3.42;2.50;;;;;;;28.32;35.17;98835.00;5093830;28;20093;-80
2021/07/03 12:06:20;;;;;;;3.15;2.70;;;;;;;28.42;34.71;98855.22;5092967;28;20048;-80
2021/07/03 12:08:48;;;;;;;5.25;3.00;;;;;;;28.50;32.13;98850.03;5093840;28;20501;-80
2021/07/03 12:11:17;;;;;;;4.40;3.35;;;;;;;28.27;29.74;98830.34;5106576;28;20513;-80
2021/07/03 12:13:48;;;;;;;4.30;2.70;;;;;;;28.47;33.84;98826.34;5108320;28;20440;-80
2021/07/03 12:16:16;;;;;;;4.63;2.67;;;;;;;28.57;31.35;98833.66;5102882;28;20055;-80
2021/07/03 12:18:49;;;;;;;4.13;2.83;;;;;;;28.59;31.57;98832.25;5102979;28;20066;-80
2021/07/03 12:21:18;;;;;;;4.03;3.10;;;;;;;28.91;31.04;98836.00;5098717;28;20055;-80
2021/07/03 12:23:53;;;;;;;5.82;3.92;;;;;;;29.16;33.73;98836.53;5093823;28;20047;-80
2021/07/03 12:26:23;;;;;;;4.50;2.80;;;;;;;29.34;30.99;98831.13;5102790;28;20431;-81
2021/07/03 12:28:55;;;;;;;2.85;2.55;;;;;;;29.20;30.53;98822.75;5110808;28;20047;-80
2021/07/03 12:31:27;;;;;;;3.97;2.80;;;;;;;29.51;31.96;98831.25;5082624;28;20044;-81
2021/07/03 12:34:08;;;;;;;3.38;2.70;;;;;;;29.28;31.81;98831.28;5093218;28;20048;-79
2021/07/03 12:36:37;;;;;;;4.43;3.20;;;;;;;29.17;29.81;98815.81;5097799;28;20051;-80
2021/07/03 12:39:09;;;;;;;3.10;2.80;;;;;;;29.00;29.23;98805.31;5113626;28;20402;-80
2021/07/03 12:41:37;;;;;;;3.35;2.60;;;;;;;28.65;29.01;98799.41;5112485;28;20044;-80
2021/07/03 12:44:04;;;;;;;3.78;2.88;;;;;;;29.08;29.97;98809.34;5093688;28;20059;-79
2021/07/03 12:46:32;;;;;;;3.40;2.80;;;;;;;28.91;29.01;98791.25;5088071;28;20054;-79
2021/07/03 12:48:59;;;;;;;4.43;2.50;;;;;;;28.89;29.39;98804.75;5085385;28;20400;-79
2021/07/03 12:51:33;;;;;;;5.47;2.78;;;;;;;29.16;29.25;98810.53;5092371;28;20048;-79
2021/07/03 12:54:01;;;;;;;3.50;2.80;;;;;;;28.81;33.63;98815.84;5100105;28;20084;-79
2021/07/03 12:56:29;;;;;;;3.40;3.10;;;;;;;28.39;29.76;98796.28;5112893;28;20051;-80
2021/07/03 12:59:00;;;;;;;5.28;2.67;;;;;;;28.12;31.92;98786.78;5112136;28;20079;-79
2021/07/03 13:01:31;;;;;;;4.70;2.60;;;;;;;28.66;30.87;98789.03;5092863;28;20055;-79
2021/07/03 13:03:58;;;;;;;3.17;2.72;;;;;;;28.90;27.45;98788.78;5092156;28;20403;-79
2021/07/03 13:06:26;;;;;;;3.53;2.78;;;;;;;28.76;28.46;98786.03;5092291;28;20048;-80
2021/07/03 13:08:55;;;;;;;3.05;2.75;;;;;;;28.55;31.10;98780.84;5092583;28;20052;-79
2021/07/03 13:11:23;;;;;;;3.58;2.80;;;;;;;28.55;27.75;98780.03;5102367;28;20044;-80
2021/07/03 13:13:50;;;;;;;3.85;2.70;;;;;;;28.57;28.96;98798.13;5112766;28;20051;-79
2021/07/03 13:16:16;;;;;;;3.55;2.63;;;;;;;28.41;28.13;98757.69;5107847;28;20048;-79
2021/07/03 13:18:43;;;;;;;3.70;2.80;;;;;;;28.42;29.89;98767.72;5092493;28;20123;-79
2021/07/03 13:21:10;;;;;;;4.57;2.60;;;;;;;28.49;31.54;98768.13;5083073;28;20051;-79
2021/07/03 13:23:37;;;;;;;4.22;2.88;;;;;;;28.96;29.27;98776.31;5112524;28;20059;-79
2021/07/03 13:26:08;;;;;;;2.90;2.60;;;;;;;29.26;27.56;98783.16;5111438;28;20480;-79
2021/07/03 13:28:36;;;;;;;4.72;2.70;;;;;;;29.10;28.04;98762.25;5112699;28;20055;-78
2021/07/03 13:31:05;;;;;;;3.03;2.70;;;;;;;29.60;30.61;98761.31;5112491;28;20487;-79
2021/07/03 13:33:32;;;;;;;3.22;2.85;;;;;;;29.37;28.47;98760.50;5112521;28;20414;-79
2021/07/03 13:35:59;;;;;;;3.00;2.30;;;;;;;29.72;30.90;98760.69;5112353;28;20407;-79
2021/07/03 13:38:26;;;;;;;7.15;2.70;;;;;;;29.98;28.39;98763.66;5109312;28;20055;-80
2021/07/03 13:40:52;;;;;;;4.25;3.17;;;;;;;29.66;27.95;98760.84;5112586;28;20047;-79
2021/07/03 13:43:21;;;;;;;4.50;2.63;;;;;;;29.40;27.60;98749.50;5107514;28;20040;-79
2021/07/03 13:45:47;;;;;;;3.80;2.95;;;;;;;29.55;31.36;98758.63;5091642;28;20051;-80
2021/07/03 13:48:14;;;;;;;3.85;2.40;;;;;;;29.51;29.52;98749.22;5093509;28;20059;-80
2021/07/03 13:50:41;;;;;;;5.40;2.80;;;;;;;28.89;28.30;98759.13;5091859;28;20055;-79
2021/07/03 13:53:08;;;;;;;4.40;2.97;;;;;;;28.81;28.44;98743.13;5093127;28;20054;-80
2021/07/03 13:55:36;;;;;;;2.67;2.47;;;;;;;29.19;31.18;98739.94;5108489;28;20047;-81
2021/07/03 13:58:03;;;;;;;4.00;2.50;;;;;;;29.48;31.24;98750.72;5097802;28;20040;-81
2021/07/03 14:00:32;;;;;;;3.70;2.53;;;;;;;29.55;28.76;98764.25;5103570;28;20040;-81
2021/07/03 14:02:59;;;;;;;4.10;2.70;;;;;;;29.83;30.65;98762.09;5099301;28;20047;-81
2021/07/03 14:05:26;;;;;;;3.25;2.70;;;;;;;29.95;27.61;98745.50;5101136;28;20317;-81
2021/07/03 14:07:53;;;;;;;5.30;2.42;;;;;;;29.97;26.72;98733.97;5110873;28;20364;-80
2021/07/03 14:10:24;;;;;;;2.90;2.60;;;;;;;29.93;28.82;98744.16;5105216;28;20042;-81
2021/07/03 14:12:50;;;;;;;4.55;3.20;;;;;;;29.75;28.94;98738.47;5110330;28;20486;-81
2021/07/03 14:15:19;;;;;;;2.50;2.13;;;;;;;29.86;26.94;98738.22;5071522;28;20502;-81
2021/07/03 14:17:47;;;;;;;3.10;2.63;;;;;;;29.54;26.98;98741.03;5094863;28;20044;-81
2021/07/03 14:20:14;;;;;;;4.05;3.10;;;;;;;29.55;26.75;98730.63;5089069;28;20051;-81
2021/07/03 14:22:44;;;;;;;3.15;2.60;;;;;;;29.64;26.56;98737.94;5082467;28;20040;-80
2021/07/03 14:25:12;;;;;;;2.97;2.65;;;;;;;29.89;26.64;98731.97;5090978;28;20237;-80
2021/07/03 14:27:39;;;;;;;4.13;2.50;;;;;;;29.79;27.32;98727.44;5086562;28;20129;-80
2021/07/03 14:30:08;;;;;;;3.67;2.67;;;;;;;29.60;25.83;98728.53;5081521;28;20682;-80
2021/07/03 14:32:34;;;;;;;6.43;2.83;;;;;;;29.41;27.44;98728.75;5071090;28;20048;-81
2021/07/03 14:35:03;;;;;;;3.95;3.03;;;;;;;29.37;28.25;98719.31;5071503;28;20098;-81
2021/07/03 14:37:33;;;;;;;4.47;2.85;;;;;;;29.91;27.82;98729.66;5071355;28;20048;-80
2021/07/03 14:40:03;;;;;;;4.63;3.20;;;;;;;29.56;27.25;98729.50;5083093;28;20048;-80
2021/07/03 14:42:30;;;;;;;4.78;3.35;;;;;;;29.45;28.19;98724.16;5081583;28;20051;-80
2021/07/03 14:44:56;;;;;;;3.83;2.83;;;;;;;29.63;29.02;98725.09;5089028;28;20060;-80
2021/07/03 14:47:23;;;;;;;5.05;3.20;;;;;;;29.41;27.38;98734.34;5078138;28;20060;-80
2021/07/03 14:49:52;;;;;;;3.72;2.80;;;;;;;28.95;28.16;98713.09;5089507;28;20052;-80
2021/07/03 14:52:20;;;;;;;6.05;3.05;;;;;;;28.78;31.81;98722.19;5071227;28;20048;-80
2021/07/03 14:54:48;;;;;;;4.40;3.03;;;;;;;28.77;29.24;98724.16;5079726;28;20044;-80
2021/07/03 14:57:15;;;;;;;5.07;2.83;;;;;;;29.13;30.73;98711.25;5087631;28;20051;-80
2021/07/03 14:59:42;;;;;;;3.53;2.97;;;;;;;28.80;28.04;98702.28;5079775;28;20044;-80
2021/07/03 15:02:09;;;;;;;4.68;2.70;;;;;;;29.02;29.28;98713.50;5071552;28;20048;-80
2021/07/03 15:04:36;;;;;;;2.97;2.70;;;;;;;28.56;29.49;98700.56;5076002;28;20051;-80
2021/07/03 15:07:04;;;;;;;4.10;3.10;;;;;;;28.60;29.90;98704.44;5080210;28;20495;-81
2021/07/03 15:09:32;;;;;;;4.57;2.90;;;;;;;28.24;30.72;98711.66;5078141;28;20091;-80
2021/07/03 15:11:59;;;;;;;4.22;2.88;;;;;;;28.23;28.96;98692.41;5114586;28;20054;-80
2021/07/03 15:14:26;;;;;;;3.40;2.65;;;;;;;28.14;30.84;98694.25;5089593;28;20051;-79
2021/07/03 15:16:55;;;;;;;3.20;2.70;;;;;;;28.19;30.38;98696.97;5080703;28;20045;-80
2021/07/03 15:19:22;;;;;;;3.78;2.58;;;;;;;28.25;31.54;98702.09;5073133;28;20080;-80
2021/07/03 15:21:49;;;;;;;6.65;3.45;;;;;;;28.60;29.66;98704.44;5074004;28;20048;-80
2021/07/03 15:24:17;;;;;;;4.13;3.08;;;;;;;28.08;30.34;98699.16;5073677;28;20106;-79
2021/07/03 15:26:45;;;;;;;5.97;3.05;;;;;;;27.94;31.77;98707.50;5082093;28;20544;-79
2021/07/03 15:29:13;;;;;;;5.15;2.85;;;;;;;28.16;30.73;98700.38;5092323;28;20732;-79
2021/07/03 15:31:40;;;;;;;3.65;2.85;;;;;;;28.02;30.56;98689.22;5073507;28;20055;-81
2021/07/03 15:34:07;;;;;;;4.10;3.30;;;;;;;28.09;34.93;98686.81;5073908;28;20044;-80
2021/07/03 15:36:34;;;;;;;5.68;3.00;;;;;;;28.37;32.89;98698.78;5073714;28;20056;-79
2021/07/03 15:39:01;;;;;;;3.70;2.70;;;;;;;28.23;31.71;98684.84;5073022;28;20052;-79
2021/07/03 15:41:28;;;;;;;3.72;2.90;;;;;;;28.24;31.74;98677.28;5073683;28;20056;-79
2021/07/03 15:43:56;;;;;;;3.38;2.70;;;;;;;28.09;31.26;98698.00;5072879;28;20048;-79
2021/07/03 15:46:23;;;;;;;3.72;2.97;;;;;;;27.91;29.86;98671.81;5085008;28;20056;-79
2021/07/03 15:48:50;;;;;;;5.78;3.00;;;;;;;27.82;31.10;98694.06;5079700;28;20044;-80
2021/07/03 15:51:16;;;;;;;3.60;3.10;;;;;;;27.74;29.77;98694.78;5074565;28;20048;-79
2021/07/03 15:53:43;;;;;;;5.20;3.00;;;;;;;27.65;30.85;98679.91;5072872;28;20408;-79
2021/07/03 15:56:10;;;;;;;4.20;2.95;;;;;;;27.54;31.94;98666.13;5088926;28;20055;-79
2021/07/03 15:58:37;;;;;;;4.20;3.30;;;;;;;27.59;30.87;98679.16;5073448;28;20052;-79
2021/07/03 16:01:05;;;;;;;4.35;2.75;;;;;;;27.46;31.07;98682.78;5083508;28;20053;-79
2021/07/03 16:03:32;;;;;;;3.58;2.67;;;;;;;27.50;32.01;98676.25;5077702;28;20044;-80
2021/07/03 16:05:59;;;;;;;5.45;2.83;;;;;;;27.39;31.59;98671.22;5092089;28;20048;-79
2021/07/03 16:08:25;;;;;;;3.63;3.10;;;;;;;27.37;32.85;98679.88;5076669;28;20573;-80
2021/07/03 16:10:52;;;;;;;6.90;2.97;;;;;;;27.35;31.53;98684.94;5074212;28;20075;-80
2021/07/03 16:13:19;;;;;;;3.28;2.97;;;;;;;27.12;31.86;98707.06;5085159;28;20044;-80
2021/07/03 16:15:46;;;;;;;3.05;2.60;;;;;;;27.28;32.57;98690.91;5095875;28;20035;-79
2021/07/03 16:18:14;;;;;;;4.38;3.08;;;;;;;27.25;32.48;98668.34;5077878;28;20044;-80
2021/07/03 16:20:41;;;;;;;4.00;3.00;;;;;;;27.47;32.99;98684.44;5072738;28;20049;-80
2021/07/03 16:23:09;;;;;;;5.85;3.28;;;;;;;27.28;33.38;98664.94;5086833;28;20064;-80
2021/07/03 16:25:36;;;;;;;6.45;3.50;;;;;;;27.26;32.69;98664.44;5093466;28;20060;-79
2021/07/03 16:28:03;;;;;;;4.22;3.60;;;;;;;27.19;31.95;98650.91;5090342;28;20048;-80
2021/07/03 16:30:30;;;;;;;3.70;3.17;;;;;;;27.15;32.24;98663.78;5076339;28;20299;-79
2021/07/03 16:32:57;;;;;;;3.85;3.03;;;;;;;27.07;32.79;98658.91;5095596;28;20052;-81
2021/07/03 16:35:25;;;;;;;3.47;2.80;;;;;;;27.27;32.82;98646.56;5092444;28;20055;-80
2021/07/03 16:37:52;;;;;;;4.22;3.47;;;;;;;27.23;33.02;98654.69;5081342;28;20430;-79
2021/07/03 16:40:19;;;;;;;3.92;2.80;;;;;;;27.00;33.80;98662.09;5073581;28;20102;-80
2021/07/03 16:42:46;;;;;;;4.93;3.03;;;;;;;27.09;33.34;98679.78;5076037;28;20055;-80
2021/07/03 16:45:13;;;;;;;3.83;3.00;;;;;;;26.95;33.39;98676.13;5079473;28;20101;-80
2021/07/03 16:47:40;;;;;;;3.90;2.97;;;;;;;26.88;32.72;98684.06;5090885;28;20044;-79
2021/07/03 16:50:08;;;;;;;4.30;3.22;;;;;;;26.76;33.48;98677.00;5085567;28;20044;-80
2021/07/03 16:52:40;;;;;;;4.03;2.97;;;;;;;26.56;33.68;98674.53;5100599;28;20048;-81
2021/07/03 16:55:08;;;;;;;4.28;3.33;;;;;;;26.52;33.51;98681.81;5085005;28;20083;-79
2021/07/03 16:57:35;;;;;;;3.90;3.40;;;;;;;26.50;33.72;98682.94;5083463;28;20048;-79
2021/07/03 17:00:01;;;;;;;5.40;3.08;;;;;;;26.41;34.13;98670.81;5079151;28;20109;-79
2021/07/03 17:02:28;;;;;;;4.10;3.00;;;;;;;26.24;34.14;98667.72;5092524;28;20052;-79
2021/07/03 17:04:56;;;;;;;5.05;3.35;;;;;;;26.30;35.60;98664.59;5090943;28;20052;-79
2021/07/03 17:07:23;;;;;;;3.50;2.97;;;;;;;26.13;35.09;98658.69;5092042;28;20052;-79
2021/07/03 17:09:51;;;;;;;6.78;3.20;;;;;;;26.14;38.52;98668.72;5082973;28;20052;-79
2021/07/03 17:12:18;;;;;;;4.38;3.17;;;;;;;26.24;35.49;98687.22;5071341;28;20125;-79
2021/07/03 17:14:45;;;;;;;5.82;3.17;;;;;;;25.94;35.81;98664.19;5069031;28;20052;-79
2021/07/03 17:17:12;;;;;;;11.50;3.95;;;;;;;25.88;35.72;98659.81;5070508;28;20048;-80
2021/07/03 17:19:39;;;;;;;9.02;3.50;;;;;;;26.07;36.26;98660.72;5071736;28;20454;-79
2021/07/03 17:22:06;;;;;;;9.32;3.97;;;;;;;26.31;38.97;98674.56;5072281;28;20392;-79
2021/07/03 17:24:33;;;;;;;4.68;3.55;;;;;;;26.12;41.65;98657.03;5088034;28;20040;-80
2021/07/03 17:27:02;;;;;;;4.57;3.35;;;;;;;26.04;42.98;98660.50;5090735;28;20059;-80
2021/07/03 17:29:29;;;;;;;;;;;;;;;25.69;45.87;98671.75;5084067;28;20495;-79
2021/07/03 17:31:56;;;;;;;7.50;3.20;;;;;;;25.46;48.42;98664.22;5072024;28;19928;-79
2021/07/03 17:34:23;;;;;;;4.97;3.50;;;;;;;25.34;49.12;98665.47;5071834;28;20045;-79
2021/07/03 17:36:50;;;;;;;5.10;3.05;;;;;;;25.23;47.13;98664.72;5070929;28;20048;-79
2021/07/03 17:39:17;;;;;;;7.32;3.45;;;;;;;25.11;47.35;98663.47;5071139;28;20098;-80
2021/07/03 17:41:44;;;;;;;6.13;3.67;;;;;;;25.36;47.13;98671.56;5073068;28;20072;-80
2021/07/03 17:44:12;;;;;;;4.28;3.45;;;;;;;25.33;49.80;98668.56;5070713;28;20443;-80
2021/07/03 17:46:39;;;;;;;5.22;3.50;;;;;;;25.12;51.25;98670.69;5083381;28;20060;-80
2021/07/03 17:49:05;;;;;;;7.57;3.60;;;;;;;24.87;51.47;98656.72;5085844;28;20075;-79
2021/07/03 17:51:32;;;;;;;3.70;3.28;;;;;;;24.85;53.80;98658.13;5072503;28;20101;-79
2021/07/03 17:53:59;;;;;;;6.10;3.58;;;;;;;24.82;55.62;98655.94;5072663;28;20044;-80
2021/07/03 17:56:26;;;;;;;6.50;3.90;;;;;;;24.73;53.68;98670.47;5083954;28;20059;-80
2021/07/03 17:58:53;;;;;;;6.20;3.47;;;;;;;24.58;54.11;98648.34;5090152;28;20048;-80
2021/07/03 18:01:21;;;;;;;5.38;3.55;;;;;;;24.56;53.28;98670.81;5084817;28;20037;-80
2021/07/03 18:03:48;;;;;;;3.78;3.30;;;;;;;24.40;54.49;98658.16;5080752;28;20059;-79
2021/07/03 18:06:15;;;;;;;7.30;3.70;;;;;;;24.44;52.36;98656.47;5080090;28;20044;-79
2021/07/03 18:08:41;;;;;;;5.00;3.38;;;;;;;24.26;54.12;98652.44;5078131;28;20048;-80
2021/07/03 18:11:09;;;;;;;6.65;4.65;;;;;;;24.16;58.63;98667.22;5072768;28;20063;-79
2021/07/03 18:13:36;;;;;;;4.18;3.63;;;;;;;24.15;59.38;98667.50;5071842;28;20048;-79
2021/07/03 18:16:03;;;;;;;7.38;3.72;;;;;;;23.87;61.94;98652.38;5070421;28;20480;-80
2021/07/03 18:18:31;;;;;;;6.63;3.75;;;;;;;23.91;62.41;98675.66;5071001;28;20052;-79
2021/07/03 18:20:58;;;;;;;6.63;3.83;;;;;;;23.78;61.77;98660.44;5071842;28;20048;-78
2021/07/03 18:23:25;;;;;;;3.85;3.35;;;;;;;23.71;62.13;98657.97;5071360;28;20045;-79
2021/07/03 18:25:53;;;;;;;10.35;3.75;;;;;;;23.69;62.20;98651.88;5070730;28;20057;-79
2021/07/03 18:28:20;;;;;;;8.38;3.97;;;;;;;23.63;62.23;98662.16;5071487;28;20060;-78
2021/07/03 18:30:47;;;;;;;10.02;3.97;;;;;;;23.45;62.73;98654.44;5071033;28;20496;-78
2021/07/03 18:33:15;;;;;;;6.60;3.75;;;;;;;23.37;63.89;98655.88;5071274;28;20052;-78
2021/07/03 18:35:43;;;;;;;5.43;4.03;;;;;;;23.25;65.47;98650.63;5070547;28;20059;-78
2021/07/03 18:38:10;;;;;;;7.72;5.57;;;;;;;23.12;67.27;98653.97;5087649;28;20052;-80
2021/07/03 18:40:38;;;;;;;5.25;4.53;;;;;;;23.09;67.77;98668.38;5094213;28;20479;-77
2021/07/03 18:43:05;;;;;;;7.25;3.85;;;;;;;22.98;67.97;98656.47;5095537;28;20048;-80
2021/07/03 18:45:32;;;;;;;4.22;3.83;;;;;;;23.10;68.84;98668.13;5095311;28;20417;-79
2021/07/03 18:47:59;;;;;;;4.32;3.92;;;;;;;23.01;69.54;98647.59;5095488;28;20532;-79
2021/07/03 18:50:25;;;;;;;5.93;3.80;;;;;;;22.90;69.96;98660.63;5095281;28;20052;-79
2021/07/03 18:52:54;;;;;;;4.57;3.65;;;;;;;22.78;70.64;98665.63;5094550;28;20044;-79
2021/07/03 18:55:20;;;;;;;16.02;3.72;;;;;;;22.63;70.48;98650.66;5094822;28;20044;-79
2021/07/03 18:57:48;;;;;;;4.70;4.20;;;;;;;22.42;72.01;98643.47;5095115;28;20048;-78
2021/07/03 19:00:17;;;;;;;5.93;3.72;;;;;;;22.41;71.35;98652.84;5094976;28;20048;-78
2021/07/03 19:02:44;;;;;;;4.85;3.88;;;;;;;22.26;72.11;98646.16;5095549;28;20048;-79
2021/07/03 19:05:12;;;;;;;5.50;4.32;;;;;;;22.26;71.18;98657.22;5094436;28;20506;-78
2021/07/03 19:07:38;;;;;;;6.30;4.75;;;;;;;22.01;72.24;98651.63;5094739;28;20048;-79
2021/07/03 19:10:09;;;;;;;5.25;4.03;;;;;;;22.08;70.01;98672.41;5082666;28;20045;-79
2021/07/03 19:12:36;;;;;;;5.70;4.30;;;;;;;21.71;70.20;98691.94;5074575;28;20055;-79
2021/07/03 19:15:04;;;;;;;7.65;4.43;;;;;;;21.55;64.19;98702.91;5074302;28;20176;-79
2021/07/03 19:17:30;;;;;;;7.15;4.70;;;;;;;21.42;64.24;98702.53;5073912;28;20053;-79
2021/07/03 19:19:57;;;;;;;8.90;4.10;;;;;;;21.36;64.02;98723.78;5075047;28;20051;-79
2021/07/03 19:22:24;;;;;;;7.80;4.47;;;;;;;21.10;64.96;98720.84;5074385;28;20079;-79
2021/07/03 19:24:51;;;;;;;6.40;4.63;;;;;;;21.00;65.60;98721.59;5074395;28;20048;-78
2021/07/03 19:27:19;;;;;;;7.70;4.38;;;;;;;20.80;67.25;98711.19;5084685;28;20509;-79
2021/07/03 19:29:47;;;;;;;6.80;4.57;;;;;;;20.84;68.63;98717.88;5094663;28;20048;-78
2021/07/03 19:32:15;;;;;;;11.70;4.75;;;;;;;21.00;68.92;98721.59;5094459;28;20105;-79
2021/07/03 19:34:42;;;;;;;5.82;4.45;;;;;;;20.88;70.70;98718.19;5094435;28;20128;-77
2021/07/03 19:37:08;;;;;;;8.45;4.72;;;;;;;20.85;68.78;98715.94;5094664;28;20052;-78
2021/07/03 19:39:36;;;;;;;6.53;4.35;;;;;;;20.92;69.31;98710.19;5094363;28;20051;-78
2021/07/03 19:42:03;;;;;;;5.25;4.05;;;;;;;20.80;70.15;98711.19;5094085;28;20052;-78
2021/07/03 19:44:31;;;;;;;12.20;4.85;;;;;;;21.01;69.74;98739.00;5086763;28;20250;-78
2021/07/03 19:46:58;;;;;;;11.57;5.10;;;;;;;20.96;71.51;98742.56;5073893;28;20060;-78
2021/07/03 19:49:25;;;;;;;7.40;4.65;;;;;;;20.71;74.09;98743.16;5073920;28;20503;-78
2021/07/03 19:51:52;;;;;;;9.07;5.10;;;;;;;20.57;75.18;98741.91;5073689;28;20052;-78
2021/07/03 19:54:18;;;;;;;6.90;5.07;;;;;;;20.56;73.47;98745.75;5073450;28;20488;-78
2021/07/03 19:56:45;;;;;;;7.57;4.70;;;;;;;20.42;73.18;98740.63;5073500;28;20048;-78
2021/07/03 19:59:13;;;;;;;7.00;4.00;;;;;;;20.45;72.88;98745.63;5073824;28;20056;-78
2021/07/03 20:01:41;;;;;;;13.23;5.22;;;;;;;20.32;72.09;98751.56;5085194;28;20052;-79
2021/07/03 20:04:08;;;;;;;6.10;5.15;;;;;;;20.43;74.17;98767.16;5093879;28;20400;-78
2021/07/03 20:06:34;;;;;;;7.53;4.88;;;;;;;20.28;72.65;98734.69;5093161;28;20545;-78
2021/07/03 20:09:02;;;;;;;6.43;5.00;;;;;;;20.43;72.23;98758.88;5093713;28;20044;-78
2021/07/03 20:11:30;;;;;;;7.35;4.80;;;;;;;20.26;75.02;98752.59;5093930;28;20051;-78
2021/07/03 20:13:57;;;;;;;6.97;5.03;;;;;;;20.24;74.27;98739.06;5093663;28;20483;-78
2021/07/03 20:16:25;;;;;;;6.10;4.50;;;;;;;20.22;73.66;98755.06;5085872;28;20076;-79
2021/07/03 20:18:53;;;;;;;5.25;4.32;;;;;;;20.20;74.99;98772.94;5073325;28;20079;-80
2021/07/03 20:21:21;;;;;;;6.07;4.78;;;;;;;19.95;75.81;98749.47;5073455;28;20389;-78
2021/07/03 20:23:48;;;;;;;10.23;5.28;;;;;;;19.95;74.46;98758.59;5073103;28;20053;-78
2021/07/03 20:26:15;;;;;;;7.70;5.28;;;;;;;19.73;75.68;98758.53;5073413;28;20048;-78
2021/07/03 20:28:42;;;;;;;9.07;5.32;;;;;;;20.02;75.92;98771.34;5073221;28;20094;-78
2021/07/03 20:31:09;;;;;;;10.38;4.65;;;;;;;19.89;78.77;98762.38;5073056;28;20048;-78
2021/07/03 20:33:35;;;;;;;7.78;5.47;;;;;;;19.82;80.75;98771.94;5083058;28;20044;-78
2021/07/03 20:36:04;;;;;;;8.13;4.97;;;;;;;19.75;79.49;98767.41;5092881;28;20047;-78
2021/07/03 20:38:31;;;;;;;6.88;4.97;;;;;;;19.86;80.52;98778.56;5093759;28;20052;-78
2021/07/03 20:40:58;;;;;;;6.15;5.28;;;;;;;19.71;82.03;98768.16;5093202;28;20044;-78
2021/07/03 20:43:24;;;;;;;7.43;5.00;;;;;;;19.60;82.30;98773.53;5093122;28;20094;-79
2021/07/03 20:45:52;;;;;;;7.65;5.38;;;;;;;19.60;81.13;98776.28;5092826;28;20055;-78
2021/07/03 20:48:20;;;;;;;12.10;5.18;;;;;;;19.43;83.38;98767.19;5093083;28;20048;-79
2021/07/03 20:50:47;;;;;;;7.63;5.60;;;;;;;19.63;82.88;98785.97;5092945;28;20048;-78
2021/07/03 20:53:16;;;;;;;6.13;5.15;;;;;;;19.58;82.49;98775.69;5075946;28;20048;-78
2021/07/03 20:55:43;;;;;;;7.88;5.55;;;;;;;19.60;81.59;98773.53;5072301;28;20080;-78
2021/07/03 20:58:10;;;;;;;7.72;5.55;;;;;;;19.49;81.45;98746.06;5072574;28;20492;-78
2021/07/03 21:00:38;;;;;;;7.82;5.50;;;;;;;19.41;80.00;98755.59;5072481;28;20122;-79
2021/07/03 21:03:05;;;;;;;8.18;5.60;;;;;;;19.35;80.91;98753.88;5071672;28;20049;-78
2021/07/03 21:05:32;;;;;;;9.88;5.35;;;;;;;19.42;80.58;98765.53;5072294;28;20044;-78
2021/07/03 21:07:59;;;;;;;10.48;5.57;;;;;;;19.35;81.47;98768.47;5072678;28;20048;-79
2021/07/03 21:10:27;;;;;;;8.00;5.63;;;;;;;19.35;81.07;98764.88;5072381;28;20052;-78
2021/07/03 21:12:55;;;;;;;11.80;5.35;;;;;;;19.22;81.68;98764.13;5072617;28;20110;-78
2021/07/03 21:15:23;;;;;;;7.32;5.95;;;;;;;19.13;83.85;98757.38;5072012;28;20045;-79
2021/07/03 21:17:50;;;;;;;6.93;4.95;;;;;;;19.14;81.05;98761.78;5072862;28;20048;-78
2021/07/03 21:20:18;;;;;;;7.93;5.75;;;;;;;19.17;82.01;98766.81;5073006;28;20117;-78
2021/07/03 21:22:45;;;;;;;6.72;4.90;;;;;;;19.31;83.45;98788.50;5071978;28;20056;-79
2021/07/03 21:25:14;;;;;;;10.93;5.50;;;;;;;19.34;83.21;98782.50;5100688;28;20059;-79
2021/07/03 21:27:43;;;;;;;10.63;6.07;;;;;;;19.13;84.44;98770.31;5093845;28;20055;-79
2021/07/03 21:30:14;;;;;;;12.57;6.53;;;;;;;19.03;83.95;98757.19;5112007;28;20054;-79
2021/07/03 21:32:43;;;;;;;8.05;5.97;;;;;;;19.08;84.18;98771.06;5104218;28;20050;-78
2021/07/03 21:35:11;;;;;;;8.52;5.90;;;;;;;19.10;85.06;98777.16;5093013;28;20044;-78
2021/07/03 21:37:38;;;;;;;10.02;5.90;;;;;;;19.04;85.54;98770.72;5093534;28;20046;-78
2021/07/03 21:40:07;;;;;;;11.13;7.35;;;;;;;19.03;86.46;98769.06;5111868;28;20054;-78
2021/07/03 21:42:34;;;;;;;11.45;6.57;;;;;;;19.08;85.90;98765.56;5109224;28;20043;-78
2021/07/03 21:45:03;;;;;;;8.13;6.18;;;;;;;19.00;87.42;98775.06;5086130;28;20122;-78
2021/07/03 21:47:30;;;;;;;9.95;5.97;;;;;;;18.96;86.90;98762.88;5093969;28;20104;-79
2021/07/03 21:49:57;;;;;;;8.77;6.28;;;;;;;18.80;86.43;98752.66;5110996;28;20499;-79
2021/07/03 21:52:23;;;;;;;10.75;6.40;;;;;;;18.89;87.78;98773.22;5109314;28;20047;-79
2021/07/03 21:54:50;;;;;;;7.90;5.57;;;;;;;18.79;88.20;98757.34;5095420;28;20449;-78